createdAt,value
2023-07-12T00:04:01.103Z,97720.91
2023-07-12T00:09:05.507Z,97780.56
2023-07-12T00:14:10.521Z,97782.22
2023-07-12T00:19:15.961Z,97764.72
2023-07-12T00:24:19.521Z,97754.94
2023-07-12T00:29:24.358Z,97745.09
2023-07-12T00:34:27.897Z,97724.97
2023-07-12T00:39:34.172Z,97712.88
2023-07-12T00:44:47.054Z,97706.22
2023-07-12T00:49:52.920Z,97681.63
2023-07-12T00:54:59.363Z,97698.78
2023-07-12T01:00:12.254Z,97699.31
2023-07-12T01:05:17.890Z,97658.50
2023-07-12T01:10:21.342Z,97654.44
2023-07-12T01:15:27.130Z,97672.63
2023-07-12T01:20:37.682Z,97664.66
2023-07-12T01:25:44.139Z,97661.78
2023-07-12T01:30:48.195Z,97535.75
2023-07-12T01:35:51.856Z,97661.50
2023-07-12T01:40:56.898Z,97577.78
2023-07-12T01:46:00.682Z,97487.28
2023-07-12T01:51:04.920Z,97585.69
2023-07-12T01:56:09.971Z,97491.91
2023-07-12T02:01:14.112Z,97564.44
2023-07-12T02:06:17.894Z,97575.53
2023-07-12T02:11:23.510Z,97515.19
2023-07-12T02:16:27.555Z,97551.81
2023-07-12T02:21:31.868Z,97463.25
2023-07-12T02:26:37.326Z,97543.41
2023-07-12T02:31:40.908Z,97569.78
2023-07-12T02:36:44.918Z,97570.44
2023-07-12T02:41:50.658Z,97574.41
2023-07-12T02:46:54.687Z,97562.75
2023-07-12T02:51:58.472Z,97558.09
2023-07-12T02:57:09.733Z,97560.59
2023-07-12T03:02:14.985Z,97570.31
2023-07-12T03:07:19.068Z,97430.06
2023-07-12T03:12:24.320Z,97517.88
2023-07-12T03:17:28.297Z,97496.50
2023-07-12T03:22:32.133Z,97547.06
2023-07-12T03:27:37.625Z,97490.03
2023-07-12T03:32:41.923Z,97434.66
2023-07-12T03:37:46.046Z,97488.47
2023-07-12T03:42:51.110Z,97591.06
2023-07-12T03:47:54.602Z,97560.94
2023-07-12T03:52:58.223Z,97437.56
2023-07-12T03:58:03.592Z,97624.72
2023-07-12T04:03:07.180Z,97613.47
2023-07-12T04:08:12.916Z,97580.03
2023-07-12T04:13:18.315Z,97559.72
2023-07-12T04:18:22.405Z,97500.69
2023-07-12T04:23:26.444Z,97563.28
2023-07-12T04:28:33.194Z,97662.63
2023-07-12T04:33:37.259Z,97658.56
2023-07-12T04:38:41.226Z,97608.69
2023-07-12T04:43:46.159Z,97660.69
2023-07-12T04:48:50.407Z,97630.75
2023-07-12T04:53:55.672Z,97330.91
2023-07-12T04:59:01.567Z,97650.00
2023-07-12T05:04:06.669Z,97477.41
2023-07-12T05:09:11.210Z,97640.91
2023-07-12T05:14:17.660Z,97626.72
2023-07-12T05:19:21.688Z,97646.38
2023-07-12T05:24:26.228Z,97631.06
2023-07-12T05:29:35.428Z,97650.03
2023-07-12T05:34:39.535Z,97667.13
2023-07-12T05:39:43.444Z,97649.97
2023-07-12T05:44:48.951Z,97590.66
2023-07-12T05:49:56.746Z,97661.56
2023-07-12T05:55:01.862Z,97658.59
2023-07-12T06:00:10.207Z,97647.78
2023-07-12T06:05:15.159Z,97676.75
2023-07-12T06:10:20.012Z,97663.81
2023-07-12T06:15:26.118Z,97656.59
2023-07-12T06:20:30.280Z,97663.13
2023-07-12T06:25:34.415Z,97661.47
2023-07-12T06:30:39.818Z,97593.53
2023-07-12T06:35:44.002Z,97645.19
2023-07-12T06:40:49.678Z,97651.75
2023-07-12T06:45:56.666Z,97693.06
2023-07-12T06:51:03.821Z,97699.81
2023-07-12T06:56:08.282Z,97713.66
2023-07-12T07:01:14.862Z,97578.03
2023-07-12T07:06:21.813Z,97708.16
2023-07-12T07:11:25.803Z,97723.22
2023-07-12T07:16:31.730Z,97716.84
2023-07-12T07:21:35.900Z,97633.53
2023-07-12T07:26:40.398Z,97740.53
2023-07-12T07:31:46.410Z,97705.44
2023-07-12T07:36:50.704Z,97711.75
2023-07-12T07:41:54.656Z,97748.25
2023-07-12T07:47:00.710Z,97744.38
2023-07-12T07:52:05.518Z,97757.91
2023-07-12T07:57:10.151Z,97760.56
2023-07-12T08:02:15.990Z,97738.00
2023-07-12T08:07:20.377Z,97764.72
2023-07-12T08:12:24.667Z,97758.78
2023-07-12T08:17:31.283Z,97714.56
2023-07-12T08:22:35.519Z,97676.09
2023-07-12T08:27:40.930Z,97709.50
2023-07-12T08:32:46.614Z,97772.19
2023-07-12T08:37:51.099Z,97762.63
2023-07-12T08:42:55.070Z,97710.69
2023-07-12T08:48:05.415Z,97784.06
2023-07-12T08:53:11.954Z,97703.66
2023-07-12T08:58:21.602Z,97787.94
2023-07-12T09:03:27.638Z,97669.38
2023-07-12T09:08:36.321Z,97698.84
2023-07-12T09:13:41.869Z,97744.69
2023-07-12T09:18:50.508Z,97708.50
2023-07-12T09:23:57.111Z,97794.03
2023-07-12T09:29:07.916Z,97751.00
2023-07-12T09:34:22.107Z,97788.81
2023-07-12T09:39:27.368Z,97630.13
2023-07-12T09:44:32.736Z,97749.13
2023-07-12T09:49:46.167Z,97793.09
2023-07-12T09:54:55.662Z,97737.34
2023-07-12T10:00:06.072Z,97775.59
2023-07-12T10:05:18.798Z,97700.47
2023-07-12T10:10:33.867Z,97743.19
2023-07-12T10:15:42.310Z,97701.59
2023-07-12T10:20:49.037Z,97767.13
2023-07-12T10:25:58.989Z,97774.28
2023-07-12T10:31:11.591Z,97660.13
2023-07-12T10:36:21.505Z,97766.78
2023-07-12T10:41:29.821Z,97752.84
2023-07-12T10:46:38.737Z,97734.41
2023-07-12T10:51:47.214Z,97757.22
2023-07-12T10:56:54.913Z,97754.13
2023-07-12T11:02:11.364Z,97740.00
2023-07-12T11:07:37.723Z,97726.84
2023-07-12T11:12:48.201Z,97719.38
2023-07-12T11:18:01.197Z,97745.84
2023-07-12T11:23:32.212Z,97741.13
2023-07-12T11:28:44.398Z,97662.03
2023-07-12T11:33:52.559Z,97723.19
2023-07-12T11:38:59.996Z,97718.94
2023-07-12T11:44:06.823Z,97695.22
2023-07-12T11:49:18.305Z,97708.09
2023-07-12T11:54:26.648Z,97746.66
2023-07-12T11:59:33.907Z,97718.56
2023-07-12T12:04:37.802Z,97430.41
2023-07-12T12:09:47.549Z,97722.22
2023-07-12T12:14:53.364Z,97657.63
2023-07-12T12:20:05.646Z,97683.28
2023-07-12T12:25:20.684Z,97693.00
2023-07-12T12:30:27.920Z,97711.81
2023-07-12T12:35:32.652Z,97715.75
2023-07-12T12:40:55.364Z,97704.00
2023-07-12T13:03:25.679Z,97678.88
2023-07-12T13:17:33.368Z,97532.00
2023-07-12T13:22:45.174Z,97612.53
2023-07-12T13:27:58.053Z,97529.03
2023-07-12T13:33:04.718Z,97662.94
2023-07-12T13:48:29.541Z,97686.59
2023-07-12T13:53:34.555Z,97696.94
2023-07-12T13:59:02.150Z,97718.63
2023-07-12T14:04:06.786Z,97712.75
2023-07-12T14:09:13.748Z,97672.53
2023-07-12T14:14:22.682Z,97682.81
2023-07-12T14:19:26.962Z,97682.41
2023-07-12T14:24:32.374Z,97716.50
2023-07-12T14:34:49.314Z,97686.84
2023-07-12T14:39:55.936Z,97593.53
2023-07-12T14:45:05.913Z,97715.75
2023-07-12T14:50:14.158Z,97710.56
2023-07-12T14:55:21.421Z,97708.09
2023-07-12T15:00:28.119Z,97725.00
2023-07-12T15:05:33.725Z,97689.09
2023-07-12T15:10:38.675Z,97693.34
2023-07-12T15:15:44.307Z,97748.84
2023-07-12T15:20:53.456Z,97675.50
2023-07-12T15:25:58.146Z,97679.72
2023-07-12T15:31:07.194Z,97690.72
2023-07-12T15:36:12.967Z,97680.13
2023-07-12T15:41:20.481Z,97668.84
2023-07-12T15:46:28.768Z,97752.16
2023-07-12T15:51:38.419Z,97756.06
2023-07-12T15:56:46.112Z,97764.44
2023-07-12T16:01:52.805Z,97723.53
2023-07-12T16:06:57.696Z,97755.41
2023-07-12T16:12:01.514Z,97640.78
2023-07-12T16:17:08.042Z,97748.72
2023-07-12T16:22:16.634Z,97746.50
2023-07-12T16:27:23.409Z,97760.31
2023-07-12T16:32:30.081Z,97734.31
2023-07-12T16:37:33.684Z,97680.25
2023-07-12T16:42:37.197Z,97733.03
2023-07-12T16:47:42.964Z,97702.81
2023-07-12T16:52:47.749Z,97728.00
2023-07-12T16:57:52.075Z,97746.53
2023-07-12T17:02:58.030Z,97753.16
2023-07-12T17:08:02.095Z,97759.00
2023-07-12T17:13:16.102Z,97692.03
2023-07-12T17:18:21.849Z,97763.06
2023-07-12T17:23:28.617Z,97743.53
2023-07-12T17:28:33.367Z,97703.19
2023-07-12T17:33:39.385Z,97707.56
2023-07-12T17:38:43.378Z,97775.16
2023-07-12T17:43:47.284Z,97777.56
2023-07-12T17:48:53.504Z,97753.97
2023-07-12T17:53:57.679Z,97679.44
2023-07-12T17:59:02.015Z,97783.84
2023-07-12T18:04:07.518Z,97736.34
2023-07-12T18:09:11.643Z,97756.22
2023-07-12T18:14:18.395Z,97762.06
2023-07-12T18:19:24.184Z,97756.28
2023-07-12T18:24:28.145Z,97697.53
2023-07-12T18:29:32.496Z,97792.69
2023-07-12T18:34:38.853Z,97742.91
2023-07-12T18:39:44.426Z,97767.28
2023-07-12T18:44:48.525Z,97733.06
2023-07-12T18:49:57.297Z,97805.53
2023-07-12T18:55:01.898Z,97782.31
2023-07-12T19:00:08.301Z,97747.53
2023-07-12T19:05:22.339Z,97843.44
2023-07-12T19:10:33.771Z,97840.25
2023-07-12T19:15:39.719Z,97837.09
2023-07-12T19:20:45.465Z,97846.38
2023-07-12T19:25:49.803Z,97811.09
2023-07-12T19:30:54.305Z,97783.13
2023-07-12T19:35:59.694Z,97704.91
2023-07-12T19:41:03.288Z,97834.75
2023-07-12T19:46:08.010Z,97831.34
2023-07-12T19:51:19.142Z,97834.38
2023-07-12T19:56:23.618Z,97845.31
2023-07-12T20:01:29.723Z,97837.50
2023-07-12T20:06:36.101Z,97835.88
2023-07-12T20:11:42.651Z,97771.28
2023-07-12T20:16:46.718Z,97795.56
2023-07-12T20:21:52.409Z,97642.59
2023-07-12T20:26:57.346Z,97697.09
2023-07-12T20:32:04.645Z,97871.66
2023-07-12T20:37:10.743Z,97872.09
2023-07-12T20:42:21.228Z,97866.97
2023-07-12T20:47:27.623Z,97844.94
2023-07-12T20:52:33.679Z,97865.34
2023-07-12T20:57:39.616Z,97808.88
2023-07-12T21:02:44.436Z,97804.00
2023-07-12T21:07:49.988Z,97818.38
2023-07-12T21:12:53.821Z,97573.47
2023-07-12T21:17:57.774Z,97790.06
2023-07-12T21:23:02.843Z,97678.81
2023-07-12T21:28:07.023Z,97835.22
2023-07-12T21:33:11.223Z,97773.63
2023-07-12T21:38:17.153Z,97876.84
2023-07-12T21:43:21.629Z,97896.84
2023-07-12T21:48:25.755Z,97721.78
2023-07-12T21:53:31.235Z,97907.69
2023-07-12T21:58:35.199Z,97905.13
2023-07-12T22:03:39.143Z,97868.69
2023-07-12T22:08:44.246Z,97912.34
2023-07-12T22:13:50.914Z,97909.22
2023-07-12T22:18:54.653Z,98004.91
2023-07-12T22:23:59.610Z,97999.97
2023-07-12T22:29:03.547Z,97918.88
2023-07-12T22:34:06.996Z,98016.63
2023-07-12T22:39:12.204Z,98000.25
2023-07-12T22:44:16.075Z,97917.97
2023-07-12T22:49:19.903Z,97917.97
2023-07-12T22:54:25.017Z,97985.13
2023-07-12T22:59:28.471Z,97996.16
2023-07-12T23:04:32.019Z,97982.59
2023-07-12T23:09:37.135Z,97905.16
2023-07-12T23:14:40.606Z,97864.28
2023-07-12T23:19:44.136Z,97987.75
2023-07-12T23:24:54.384Z,97959.88
2023-07-12T23:29:58.240Z,98017.25
2023-07-12T23:35:03.358Z,98037.50
2023-07-12T23:40:10.434Z,98024.91
2023-07-12T23:45:14.014Z,98022.75
2023-07-12T23:50:19.084Z,97986.66
2023-07-12T23:55:24.097Z,98045.13
